createdAt,value
2022-10-28T00:01:10.216Z,62.27
2022-10-28T00:03:41.514Z,64.40
2022-10-28T00:06:12.235Z,61.97
2022-10-28T00:08:39.515Z,63.33
2022-10-28T00:11:15.684Z,111.60
2022-10-28T00:13:44.500Z,70.57
2022-10-28T00:16:17.719Z,67.03
2022-10-28T00:18:45.482Z,59.73
2022-10-28T00:21:18.947Z,57.33
2022-10-28T00:23:46.853Z,58.50
2022-10-28T00:26:19.347Z,61.97
2022-10-28T00:28:51.991Z,58.47
2022-10-28T00:31:21.893Z,50.33
2022-10-28T00:33:49.178Z,52.03
2022-10-28T00:36:24.490Z,53.47
2022-10-28T00:38:52.898Z,52.43
2022-10-28T00:41:32.941Z,56.47
2022-10-28T00:44:19.814Z,52.23
2022-10-28T00:46:51.397Z,48.23
2022-10-28T00:49:26.401Z,45.83
2022-10-28T00:51:59.495Z,54.37
2022-10-28T00:54:27.361Z,69.70
2022-10-28T00:56:58.295Z,50.20
2022-10-28T00:59:29.716Z,66.47
2022-10-28T01:01:57.434Z,68.40
2022-10-28T01:04:25.209Z,63.07
2022-10-28T01:06:52.876Z,61.00
2022-10-28T01:09:19.856Z,72.63
2022-10-28T01:12:09.156Z,61.10
2022-10-28T01:15:12.555Z,62.80
2022-10-28T01:17:44.965Z,61.27
2022-10-28T01:20:41.734Z,62.63
2022-10-28T01:23:28.457Z,78.97
2022-10-28T01:26:03.268Z,73.13
2022-10-28T01:28:46.412Z,75.50
2022-10-28T01:31:51.161Z,63.27
2022-10-28T01:34:51.323Z,64.53
2022-10-28T01:37:47.349Z,75.87
2022-10-28T01:40:36.503Z,76.70
2022-10-28T01:43:34.385Z,69.80
2022-10-28T01:46:14.746Z,62.47
2022-10-28T01:48:46.515Z,80.57
2022-10-28T01:51:38.202Z,74.33
2022-10-28T01:54:08.196Z,85.53
2022-10-28T01:56:40.750Z,74.77
2022-10-28T01:59:12.699Z,83.60
2022-10-28T02:01:40.081Z,85.27
2022-10-28T02:04:07.429Z,77.33
2022-10-28T02:06:35.119Z,65.97
2022-10-28T02:09:26.844Z,74.13
2022-10-28T02:12:02.899Z,66.27
2022-10-28T02:15:04.043Z,74.77
2022-10-28T02:17:49.166Z,77.37
2022-10-28T02:20:16.132Z,78.00
2022-10-28T02:22:58.527Z,74.80
2022-10-28T02:25:43.789Z,72.07
2022-10-28T02:28:15.600Z,75.63
2022-10-28T02:30:58.045Z,72.63
2022-10-28T02:33:29.909Z,71.43
2022-10-28T02:36:05.804Z,73.93
2022-10-28T02:38:39.323Z,84.37
2022-10-28T02:41:15.950Z,89.23
2022-10-28T02:43:44.655Z,77.67
2022-10-28T02:46:14.816Z,71.50
2022-10-28T02:48:46.461Z,66.60
2022-10-28T02:51:30.096Z,72.17
2022-10-28T02:54:23.681Z,67.83
2022-10-28T02:57:13.959Z,71.13
2022-10-28T02:59:41.995Z,74.10
2022-10-28T03:02:09.601Z,71.53
2022-10-28T03:04:36.764Z,73.13
2022-10-28T03:07:03.802Z,75.73
2022-10-28T03:09:32.174Z,78.53
2022-10-28T03:11:59.056Z,81.43
2022-10-28T03:14:26.161Z,82.10
2022-10-28T03:16:53.099Z,83.03
2022-10-28T03:19:20.167Z,73.10
2022-10-28T03:21:47.046Z,75.83
2022-10-28T03:24:14.154Z,81.27
2022-10-28T03:26:41.081Z,72.50
2022-10-28T03:29:08.195Z,72.43
2022-10-28T03:31:35.140Z,73.03
2022-10-28T03:34:02.452Z,75.90
2022-10-28T03:36:29.370Z,70.87
2022-10-28T03:38:56.593Z,64.40
2022-10-28T03:41:23.498Z,63.60
2022-10-28T03:43:50.731Z,59.70
2022-10-28T03:46:17.580Z,60.07
2022-10-28T03:48:44.690Z,59.60
2022-10-28T03:51:11.659Z,69.50
2022-10-28T03:53:38.796Z,65.40
2022-10-28T03:56:05.954Z,61.47
2022-10-28T03:58:36.184Z,70.87
2022-10-28T04:01:05.728Z,73.87
2022-10-28T04:03:32.888Z,98.47
2022-10-28T04:05:59.817Z,82.77
2022-10-28T04:08:26.987Z,112.63
2022-10-28T04:10:53.904Z,129.30
2022-10-28T04:13:21.180Z,124.33
2022-10-28T04:15:48.143Z,145.83
2022-10-28T04:18:15.216Z,164.17
2022-10-28T04:20:42.418Z,157.83
2022-10-28T04:23:15.151Z,146.53
2022-10-28T04:25:42.190Z,132.60
2022-10-28T04:28:09.344Z,125.33
2022-10-28T04:30:36.302Z,147.37
2022-10-28T04:33:03.705Z,128.57
2022-10-28T04:35:30.745Z,152.83
2022-10-28T04:37:57.910Z,136.73
2022-10-28T04:40:24.933Z,153.50
2022-10-28T04:42:52.210Z,166.33
2022-10-28T04:45:19.592Z,134.00
2022-10-28T04:47:46.672Z,126.30
2022-10-28T04:50:13.796Z,144.63
2022-10-28T04:52:40.850Z,122.90
2022-10-28T04:55:08.706Z,109.03
2022-10-28T04:57:35.822Z,127.97
2022-10-28T05:00:03.662Z,146.03
2022-10-28T05:02:31.513Z,140.70
2022-10-28T05:05:02.321Z,135.13
2022-10-28T05:07:30.143Z,120.77
2022-10-28T05:09:57.033Z,115.20
2022-10-28T05:12:24.095Z,112.20
2022-10-28T05:14:53.072Z,120.63
2022-10-28T05:17:20.564Z,118.97
2022-10-28T05:19:47.752Z,118.90
2022-10-28T05:22:14.805Z,131.80
2022-10-28T05:24:41.744Z,121.50
2022-10-28T05:27:08.785Z,131.27
2022-10-28T05:29:35.750Z,141.53
2022-10-28T05:32:02.863Z,147.27
2022-10-28T05:34:30.072Z,136.90
2022-10-28T05:36:57.238Z,135.20
2022-10-28T05:39:24.172Z,129.37
2022-10-28T05:41:51.458Z,127.10
2022-10-28T05:44:18.362Z,117.63
2022-10-28T05:46:45.464Z,118.23
2022-10-28T05:49:12.344Z,120.47
2022-10-28T05:51:39.439Z,127.83
2022-10-28T05:54:06.404Z,124.60
2022-10-28T05:56:33.638Z,129.60
2022-10-28T05:59:00.553Z,133.10
2022-10-28T06:01:27.806Z,144.13
2022-10-28T06:03:55.093Z,125.47
2022-10-28T06:06:22.237Z,125.57
2022-10-28T06:08:49.323Z,152.17
2022-10-28T06:11:14.955Z,143.17
2022-10-28T06:13:41.814Z,146.33
2022-10-28T06:16:08.875Z,154.53
2022-10-28T06:18:35.749Z,155.07
2022-10-28T06:21:03.384Z,163.00
2022-10-28T06:23:30.394Z,146.43
2022-10-28T06:25:59.792Z,150.67
2022-10-28T06:28:27.775Z,146.77
2022-10-28T06:31:01.431Z,148.53
2022-10-28T06:33:28.607Z,155.33
2022-10-28T06:35:56.792Z,160.70
2022-10-28T06:38:24.925Z,141.07
2022-10-28T06:40:52.716Z,144.10
2022-10-28T06:43:19.816Z,150.93
2022-10-28T06:45:52.146Z,147.47
2022-10-28T06:48:20.932Z,135.80
2022-10-28T06:50:48.084Z,138.17
2022-10-28T06:53:15.129Z,127.93
2022-10-28T06:55:42.565Z,113.33
2022-10-28T06:58:09.819Z,100.87
2022-10-28T07:00:49.275Z,84.80
2022-10-28T07:03:16.713Z,79.00
2022-10-28T07:05:43.849Z,67.37
2022-10-28T07:08:10.956Z,54.07
2022-10-28T07:10:38.121Z,46.00
2022-10-28T07:13:05.104Z,43.97
2022-10-28T07:15:32.961Z,46.55
2022-10-28T07:17:59.922Z,44.50
2022-10-28T07:20:28.427Z,42.43
2022-10-28T07:22:58.070Z,42.85
2022-10-28T07:25:26.378Z,39.13
2022-10-28T07:27:53.660Z,42.40
2022-10-28T07:30:21.131Z,40.45
2022-10-28T07:32:48.340Z,42.70
2022-10-28T07:35:15.649Z,42.95
2022-10-28T07:37:42.601Z,37.75
2022-10-28T07:40:10.057Z,36.33
2022-10-28T07:42:37.258Z,33.17
2022-10-28T07:45:05.608Z,37.40
2022-10-28T07:47:32.628Z,33.00
2022-10-28T07:49:59.745Z,36.78
2022-10-28T07:52:26.864Z,33.35
2022-10-28T07:54:53.981Z,34.53
2022-10-28T07:57:21.059Z,30.77
2022-10-28T07:59:48.143Z,31.42
2022-10-28T08:02:24.836Z,32.70
2022-10-28T08:04:52.754Z,33.20
2022-10-28T08:07:20.279Z,31.30
2022-10-28T08:09:47.436Z,32.72
2022-10-28T08:12:15.622Z,27.70
2022-10-28T08:14:42.757Z,30.48
2022-10-28T08:17:10.120Z,32.05
2022-10-28T08:19:37.517Z,24.15
2022-10-28T08:22:04.579Z,29.08
2022-10-28T08:24:31.681Z,29.08
2022-10-28T08:26:58.840Z,27.00
2022-10-28T08:29:29.154Z,35.97
2022-10-28T08:31:57.910Z,29.55
2022-10-28T08:34:29.742Z,31.38
2022-10-28T08:36:57.684Z,30.15
2022-10-28T08:39:25.220Z,27.83
2022-10-28T08:41:58.388Z,23.42
2022-10-28T08:45:02.798Z,29.30
2022-10-28T08:47:40.833Z,27.20
2022-10-28T08:50:15.082Z,33.65
2022-10-28T08:52:59.559Z,27.25
2022-10-28T08:55:30.711Z,25.73
2022-10-28T08:58:28.467Z,26.95
2022-10-28T09:00:59.570Z,30.45
2022-10-28T09:03:33.257Z,29.80
2022-10-28T09:06:05.765Z,27.48
2022-10-28T09:08:40.797Z,27.98
2022-10-28T09:11:10.815Z,28.73
2022-10-28T09:13:56.339Z,29.08
2022-10-28T09:16:32.228Z,28.08
2022-10-28T09:19:05.250Z,29.02
2022-10-28T09:22:00.709Z,37.30
2022-10-28T09:24:35.949Z,27.88
2022-10-28T09:27:16.454Z,31.42
2022-10-28T09:29:55.627Z,26.25
2022-10-28T09:33:02.119Z,25.10
2022-10-28T09:35:36.370Z,27.83
2022-10-28T09:38:27.598Z,28.50
2022-10-28T09:41:20.805Z,26.48
2022-10-28T09:44:08.969Z,25.52
2022-10-28T09:46:38.590Z,22.48
2022-10-28T09:49:17.949Z,29.45
2022-10-28T09:52:15.298Z,29.67
2022-10-28T09:55:13.133Z,31.83
2022-10-28T09:57:58.794Z,30.25
2022-10-28T10:00:25.984Z,33.20
2022-10-28T10:03:11.555Z,25.75
2022-10-28T10:05:43.424Z,28.58
2022-10-28T10:08:15.605Z,25.00
2022-10-28T10:10:57.078Z,29.73
2022-10-28T10:13:43.695Z,29.98
2022-10-28T10:16:29.849Z,26.08
2022-10-28T10:19:15.559Z,25.65
2022-10-28T10:21:45.683Z,20.13
2022-10-28T10:24:33.717Z,21.50
2022-10-28T10:27:17.685Z,26.05
2022-10-28T10:29:47.555Z,23.45
2022-10-28T10:32:18.808Z,21.10
2022-10-28T10:34:54.372Z,24.02
2022-10-28T10:37:22.819Z,24.02
2022-10-28T10:40:17.296Z,22.80
2022-10-28T10:42:57.383Z,23.67
2022-10-28T10:45:32.672Z,34.90
2022-10-28T10:48:18.790Z,26.13
2022-10-28T10:50:48.860Z,28.45
2022-10-28T10:53:36.123Z,24.15
2022-10-28T10:56:09.500Z,29.73
2022-10-28T10:58:49.499Z,26.98
2022-10-28T11:01:21.125Z,26.83
2022-10-28T11:04:19.888Z,29.92
2022-10-28T11:06:51.555Z,28.20
2022-10-28T11:09:42.410Z,26.13
2022-10-28T11:12:15.663Z,28.27
2022-10-28T11:14:55.659Z,28.83
2022-10-28T11:17:41.451Z,27.08
2022-10-28T11:20:28.527Z,27.92
2022-10-28T11:23:26.789Z,31.10
2022-10-28T11:25:59.000Z,30.23
2022-10-28T11:28:50.459Z,28.38
2022-10-28T11:31:40.948Z,30.52
2022-10-28T11:34:21.379Z,33.88
2022-10-28T11:37:10.274Z,29.52
2022-10-28T11:40:25.558Z,52.30
2022-10-28T11:43:38.673Z,44.20
2022-10-28T11:46:16.061Z,36.63
2022-10-28T11:48:53.021Z,31.83
2022-10-28T11:51:50.307Z,37.03
2022-10-28T11:54:45.055Z,34.03
2022-10-28T11:57:17.274Z,32.13
2022-10-28T12:00:06.194Z,31.90
2022-10-28T12:03:01.688Z,30.58
2022-10-28T12:05:56.239Z,26.65
2022-10-28T12:08:57.771Z,28.05
2022-10-28T12:11:49.652Z,24.30
2022-10-28T12:14:34.874Z,25.42
2022-10-28T12:17:12.870Z,21.55
2022-10-28T12:20:02.811Z,27.58
2022-10-28T12:22:41.729Z,21.63
2022-10-28T12:25:16.004Z,23.05
2022-10-28T12:27:47.600Z,23.75
2022-10-28T12:30:37.289Z,23.70
2022-10-28T12:33:44.529Z,26.10
2022-10-28T12:36:39.726Z,20.50
2022-10-28T12:39:12.577Z,21.45
2022-10-28T12:42:11.350Z,26.20
2022-10-28T12:44:39.704Z,21.95
2022-10-28T12:47:59.189Z,21.77
2022-10-28T12:51:00.976Z,21.83
2022-10-28T12:54:00.661Z,21.38
2022-10-28T12:56:36.553Z,24.10
2022-10-28T12:59:11.825Z,21.52
2022-10-28T13:01:39.977Z,23.33
2022-10-28T13:04:26.750Z,24.98
2022-10-28T13:07:14.136Z,22.30
2022-10-28T13:09:52.380Z,23.55
2022-10-28T13:12:37.492Z,21.38
2022-10-28T13:15:30.765Z,21.40
2022-10-28T13:18:12.906Z,19.52
2022-10-28T13:21:05.034Z,23.55
2022-10-28T13:23:43.814Z,20.38
2022-10-28T13:26:33.016Z,23.20
2022-10-28T13:29:07.379Z,20.00
2022-10-28T13:31:41.953Z,22.08
2022-10-28T13:34:11.383Z,23.65
2022-10-28T13:36:57.697Z,20.35
2022-10-28T13:39:42.026Z,25.10
2022-10-28T13:42:19.630Z,19.85
2022-10-28T13:44:55.840Z,18.95
2022-10-28T13:47:42.162Z,18.48
2022-10-28T13:50:22.429Z,18.17
2022-10-28T13:53:42.608Z,17.00
2022-10-28T13:56:31.774Z,18.63
2022-10-28T13:59:02.681Z,25.48
2022-10-28T14:01:56.403Z,25.58
2022-10-28T14:04:38.400Z,21.40
2022-10-28T14:07:28.983Z,15.77
2022-10-28T14:10:07.926Z,23.35
2022-10-28T14:12:59.755Z,18.08
2022-10-28T14:15:34.051Z,23.52
2022-10-28T14:18:41.549Z,17.00
2022-10-28T14:21:23.754Z,20.77
2022-10-28T14:24:14.689Z,17.58
2022-10-28T14:27:06.704Z,23.98
2022-10-28T14:29:45.116Z,16.70
2022-10-28T14:32:31.040Z,103.43
2022-10-28T14:35:20.285Z,28.35
2022-10-28T14:38:03.997Z,23.55
2022-10-28T14:40:34.200Z,24.63
2022-10-28T14:43:30.882Z,24.90
2022-10-28T14:46:40.552Z,22.60
2022-10-28T14:49:35.391Z,24.00
2022-10-28T14:52:16.280Z,30.55
2022-10-28T14:55:05.579Z,23.90
2022-10-28T14:57:51.545Z,26.73
2022-10-28T15:00:21.605Z,25.10
2022-10-28T15:02:48.705Z,29.75
2022-10-28T15:05:20.433Z,35.42
2022-10-28T15:07:48.172Z,30.42
2022-10-28T15:10:25.980Z,37.72
2022-10-28T15:12:55.596Z,49.97
2022-10-28T15:15:25.678Z,38.33
2022-10-28T15:18:25.332Z,38.92
2022-10-28T15:21:15.362Z,47.50
2022-10-28T15:24:06.983Z,35.83
2022-10-28T15:26:56.884Z,42.65
2022-10-28T15:29:24.751Z,40.20
2022-10-28T15:32:12.661Z,41.47
2022-10-28T15:34:58.580Z,44.92
2022-10-28T15:37:29.166Z,41.88
2022-10-28T15:40:12.618Z,43.58
2022-10-28T15:43:03.274Z,48.40
2022-10-28T15:45:49.310Z,40.58
2022-10-28T15:48:34.797Z,41.35
2022-10-28T15:51:13.444Z,38.63
2022-10-28T15:53:41.880Z,38.67
2022-10-28T15:56:27.703Z,41.85
2022-10-28T15:59:23.666Z,34.55
2022-10-28T16:02:43.571Z,38.35
2022-10-28T16:05:32.571Z,37.50
2022-10-28T16:08:04.685Z,35.80
2022-10-28T16:10:52.322Z,35.35
2022-10-28T16:13:30.306Z,32.97
2022-10-28T16:16:08.280Z,36.65
2022-10-28T16:19:10.487Z,29.63
2022-10-28T16:21:38.814Z,31.52
2022-10-28T16:24:24.142Z,26.45
2022-10-28T16:26:51.338Z,32.90
2022-10-28T16:29:36.425Z,26.08
2022-10-28T16:32:03.606Z,32.58
2022-10-28T16:34:30.542Z,27.95
2022-10-28T16:37:27.573Z,26.10
2022-10-28T16:39:55.379Z,27.73
2022-10-28T16:42:22.941Z,27.75
2022-10-28T16:44:50.702Z,34.55
2022-10-28T16:47:20.064Z,27.77
2022-10-28T16:50:06.104Z,26.73
2022-10-28T16:52:34.570Z,34.17
2022-10-28T16:55:01.735Z,27.00
2022-10-28T16:57:29.382Z,33.17
2022-10-28T16:59:56.432Z,25.27
2022-10-28T17:02:31.795Z,26.65
2022-10-28T17:04:59.581Z,30.52
2022-10-28T17:07:28.768Z,25.38
2022-10-28T17:10:15.121Z,26.55
2022-10-28T17:12:43.102Z,25.73
2022-10-28T17:15:10.730Z,29.73
2022-10-28T17:17:37.931Z,27.80
2022-10-28T17:20:23.230Z,27.92
2022-10-28T17:23:08.583Z,27.38
2022-10-28T17:25:35.896Z,28.15
2022-10-28T17:28:21.150Z,26.05
2022-10-28T17:30:48.253Z,35.45
2022-10-28T17:33:15.185Z,24.00
2022-10-28T17:35:42.656Z,38.72
2022-10-28T17:38:09.519Z,37.40
2022-10-28T17:40:36.721Z,26.27
2022-10-28T17:43:22.914Z,27.20
2022-10-28T17:45:51.609Z,26.40
2022-10-28T17:48:18.559Z,24.88
2022-10-28T17:51:03.834Z,27.38
2022-10-28T17:53:58.503Z,32.60
2022-10-28T17:56:25.841Z,25.73
2022-10-28T17:59:11.564Z,34.17
2022-10-28T18:01:39.041Z,33.55
2022-10-28T18:04:06.260Z,30.20
2022-10-28T18:06:33.612Z,37.25
2022-10-28T18:09:19.441Z,34.50
2022-10-28T18:12:06.648Z,34.72
2022-10-28T18:14:34.038Z,32.20
2022-10-28T18:17:00.931Z,37.22
2022-10-28T18:19:28.158Z,42.13
2022-10-28T18:21:55.109Z,36.20
2022-10-28T18:24:25.942Z,28.02
2022-10-28T18:26:55.694Z,27.50
2022-10-28T18:29:22.812Z,33.92
2022-10-28T18:31:49.860Z,25.55
2022-10-28T18:34:35.459Z,28.25
2022-10-28T18:37:07.840Z,31.13
2022-10-28T18:39:52.964Z,31.60
2022-10-28T18:42:38.218Z,36.00
2022-10-28T18:45:05.711Z,31.55
2022-10-28T18:47:34.696Z,32.83
2022-10-28T18:50:02.058Z,34.58
2022-10-28T18:52:29.297Z,32.13
2022-10-28T18:55:14.745Z,36.50
2022-10-28T18:57:41.997Z,27.48
2022-10-28T19:00:17.870Z,32.22
2022-10-28T19:05:19.445Z,34.55
2022-10-28T19:07:46.780Z,32.57
2022-10-28T19:10:13.799Z,31.13
2022-10-28T19:12:44.287Z,32.25
2022-10-28T19:15:13.846Z,30.98
2022-10-28T19:17:40.967Z,30.75
2022-10-28T19:20:26.322Z,30.23
2022-10-28T19:23:11.623Z,29.05
2022-10-28T19:25:38.798Z,23.15
2022-10-28T19:28:05.703Z,30.48
2022-10-28T19:30:34.559Z,30.83
2022-10-28T19:33:01.455Z,30.85
2022-10-28T19:35:28.726Z,33.78
2022-10-28T19:37:55.806Z,29.25
2022-10-28T19:40:22.993Z,32.05
2022-10-28T19:43:08.358Z,31.27
2022-10-28T19:45:53.623Z,32.28
2022-10-28T19:48:20.705Z,28.52
2022-10-28T19:50:50.448Z,30.90
2022-10-28T19:53:35.708Z,32.75
2022-10-28T19:56:21.487Z,41.47
2022-10-28T19:58:53.280Z,29.95
2022-10-28T20:01:22.115Z,31.98
2022-10-28T20:04:09.896Z,32.00
2022-10-28T20:06:40.434Z,32.88
2022-10-28T20:09:07.374Z,36.47
2022-10-28T20:11:52.664Z,29.55
2022-10-28T20:14:19.968Z,28.98
2022-10-28T20:16:48.838Z,29.27
2022-10-28T20:19:34.402Z,38.53
2022-10-28T20:22:01.610Z,35.42
2022-10-28T20:24:28.614Z,27.67
2022-10-28T20:26:55.628Z,29.55
2022-10-28T20:29:22.754Z,28.52
2022-10-28T20:31:49.747Z,32.50
2022-10-28T20:34:34.996Z,30.67
2022-10-28T20:37:02.159Z,28.95
2022-10-28T20:39:29.295Z,30.42
2022-10-28T20:41:56.730Z,29.75
2022-10-28T20:44:23.648Z,29.48
2022-10-28T20:46:50.999Z,39.60
2022-10-28T20:49:18.033Z,31.38
2022-10-28T20:51:45.162Z,33.15
2022-10-28T20:54:12.114Z,36.07
2022-10-28T20:56:57.674Z,34.72
2022-10-28T20:59:42.830Z,28.90
2022-10-28T21:02:10.140Z,31.30
2022-10-28T21:04:37.779Z,31.40
2022-10-28T21:07:05.152Z,35.15
2022-10-28T21:09:32.062Z,31.58
2022-10-28T21:11:59.199Z,31.07
2022-10-28T21:14:26.058Z,30.00
2022-10-28T21:16:53.259Z,34.17
2022-10-28T21:19:20.227Z,31.33
2022-10-28T21:21:47.343Z,32.25
2022-10-28T21:24:14.312Z,33.40
2022-10-28T21:26:59.429Z,30.42
2022-10-28T21:29:26.611Z,26.75
2022-10-28T21:31:53.507Z,32.45
2022-10-28T21:34:39.024Z,27.67
2022-10-28T21:37:24.417Z,26.77
2022-10-28T21:39:52.941Z,28.07
2022-10-28T21:42:39.508Z,29.70
2022-10-28T21:45:07.747Z,28.53
2022-10-28T21:47:34.909Z,34.13
2022-10-28T21:50:02.040Z,30.27
2022-10-28T21:52:29.231Z,29.65
2022-10-28T21:54:56.289Z,26.88
2022-10-28T21:57:29.117Z,32.50
2022-10-28T21:59:56.919Z,31.17
2022-10-28T22:02:24.207Z,27.48
2022-10-28T22:04:51.393Z,22.58
2022-10-28T22:07:18.435Z,27.63
2022-10-28T22:09:45.435Z,24.88
2022-10-28T22:12:12.545Z,25.42
2022-10-28T22:14:39.468Z,23.60
2022-10-28T22:17:24.724Z,26.40
2022-10-28T22:19:52.435Z,21.40
2022-10-28T22:22:19.333Z,21.08
2022-10-28T22:24:46.285Z,30.40
2022-10-28T22:27:31.778Z,28.10
2022-10-28T22:29:58.928Z,25.17
2022-10-28T22:32:25.842Z,21.05
2022-10-28T22:34:52.785Z,23.58
2022-10-28T22:37:37.981Z,23.80
2022-10-28T22:40:05.480Z,25.75
2022-10-28T22:42:32.350Z,22.17
2022-10-28T22:44:59.707Z,24.27
2022-10-28T22:47:26.599Z,22.30
2022-10-28T22:49:53.692Z,24.35
2022-10-28T22:52:20.680Z,27.92
2022-10-28T22:54:47.776Z,24.15
2022-10-28T22:57:14.652Z,25.73
2022-10-28T22:59:41.762Z,27.58
2022-10-28T23:02:08.901Z,29.33
2022-10-28T23:04:35.938Z,21.00
2022-10-28T23:07:02.997Z,26.67
2022-10-28T23:09:29.927Z,31.92
2022-10-28T23:11:57.107Z,30.35
2022-10-28T23:14:24.274Z,23.23
2022-10-28T23:16:51.116Z,27.80
2022-10-28T23:19:36.579Z,21.15
2022-10-28T23:22:21.761Z,35.17
2022-10-28T23:24:48.864Z,23.20
2022-10-28T23:27:15.772Z,20.57
2022-10-28T23:29:42.688Z,31.00
2022-10-28T23:32:29.849Z,24.35
2022-10-28T23:35:15.054Z,26.35
2022-10-28T23:37:42.244Z,21.67
2022-10-28T23:42:42.004Z,19.03
2022-10-28T23:45:09.742Z,25.35
2022-10-28T23:47:36.751Z,25.80
2022-10-28T23:50:04.053Z,18.67
2022-10-28T23:52:31.292Z,24.65
2022-10-28T23:54:58.161Z,22.35
2022-10-28T23:57:43.397Z,25.70
